createdAt,value
2019-04-06T14:45:59.830Z,82.38
2019-04-06T14:46:59.538Z,82.29
2019-04-06T14:48:52.192Z,82.48
2019-04-06T14:49:52.080Z,82.38
2019-04-06T14:51:44.895Z,82.29
2019-04-06T14:52:44.891Z,82.09
2019-04-06T14:54:37.954Z,81.90
2019-04-06T14:55:37.528Z,82.09
2019-04-06T14:57:30.541Z,82.19
2019-04-06T14:58:30.259Z,82.29
2019-04-06T15:00:23.045Z,82.67
2019-04-06T15:01:23.030Z,82.38
2019-04-06T15:03:15.884Z,82.67
2019-04-06T15:04:15.680Z,82.57
2019-04-06T15:06:08.479Z,82.76
2019-04-06T15:07:11.501Z,82.48
2019-04-06T15:09:01.210Z,82.57
2019-04-06T15:10:01.105Z,83.53
2019-04-06T15:11:53.894Z,82.67
2019-04-06T15:12:53.827Z,82.57
2019-04-06T15:14:46.908Z,82.48
2019-04-06T15:15:46.560Z,82.57
2019-04-06T15:17:39.347Z,82.29
2019-04-06T15:18:39.680Z,81.81
2019-04-06T15:20:32.109Z,82.38
2019-04-06T15:21:32.030Z,82.86
2019-04-06T15:23:24.829Z,82.67
2019-04-06T15:24:24.737Z,82.57
2019-04-06T15:26:17.528Z,82.67
2019-04-06T15:27:17.908Z,82.48
2019-04-06T15:29:10.611Z,82.76
2019-04-06T15:30:10.199Z,82.67
2019-04-06T15:32:03.010Z,82.76
2019-04-06T15:33:03.202Z,82.57
2019-04-06T15:34:55.750Z,82.86
2019-04-06T15:35:55.659Z,82.48
2019-04-06T15:37:48.480Z,82.43
2019-04-06T15:38:48.633Z,82.48
2019-04-06T15:40:41.977Z,82.38
2019-04-06T15:41:41.249Z,82.43
2019-04-06T15:43:32.897Z,82.95
2019-04-06T15:44:32.833Z,82.76
2019-04-06T15:46:24.650Z,82.76
2019-04-06T15:47:24.547Z,82.76
2019-04-06T15:49:16.335Z,83.34
2019-04-06T15:50:16.269Z,82.76
2019-04-06T15:52:11.410Z,82.67
2019-04-06T15:53:07.989Z,82.76
2019-04-06T15:54:59.781Z,82.29
2019-04-06T15:55:59.713Z,81.90
2019-04-06T15:57:51.543Z,82.09
2019-04-06T15:58:51.499Z,82.00
2019-04-06T16:00:43.245Z,81.66
2019-04-06T16:01:43.149Z,81.76
2019-04-06T16:03:34.928Z,80.70
2019-04-06T16:04:35.000Z,80.61
2019-04-06T16:06:26.732Z,80.70
2019-04-06T16:07:33.090Z,80.61
2019-04-06T16:09:18.366Z,81.18
2019-04-06T16:10:18.305Z,80.90
2019-04-06T16:12:10.118Z,80.32
2019-04-06T16:13:10.023Z,80.80
2019-04-06T16:15:01.835Z,80.80
2019-04-06T16:16:01.742Z,80.99
2019-04-06T16:17:53.552Z,80.51
2019-04-06T16:18:53.639Z,80.80
2019-04-06T16:20:45.276Z,80.93
2019-04-06T16:21:45.180Z,80.17
2019-04-06T16:23:37.129Z,79.69
2019-04-06T16:24:37.261Z,79.46
2019-04-06T16:26:29.167Z,78.93
2019-04-06T16:27:28.618Z,79.02
2019-04-06T16:29:20.397Z,79.31
2019-04-06T16:30:20.335Z,79.22
2019-04-06T16:32:13.436Z,78.83
2019-04-06T16:33:12.722Z,78.83
2019-04-06T16:35:04.300Z,78.64
2019-04-06T16:36:03.781Z,78.45
2019-04-06T16:37:55.559Z,78.55
2019-04-06T16:38:55.523Z,78.64
2019-04-06T16:40:47.311Z,78.64
2019-04-06T16:41:47.686Z,78.55
2019-04-06T16:43:39.029Z,78.55
2019-04-06T16:44:38.938Z,78.74
2019-04-06T16:46:31.485Z,78.83
2019-04-06T16:47:30.653Z,78.45
2019-04-06T16:49:22.435Z,78.55
2019-04-06T16:50:22.554Z,78.64
2019-04-06T16:52:14.222Z,78.45
2019-04-06T16:53:14.113Z,78.64
2019-04-06T16:55:05.898Z,78.83
2019-04-06T16:56:05.832Z,78.74
2019-04-06T16:57:58.004Z,78.83
2019-04-06T16:58:57.778Z,78.45
2019-04-06T17:00:50.690Z,78.55
2019-04-06T17:01:50.631Z,78.74
2019-04-06T17:03:42.447Z,78.55
2019-04-06T17:04:42.714Z,78.83
2019-04-06T17:06:34.141Z,78.55
2019-04-06T17:07:34.125Z,78.45
2019-04-06T17:09:25.887Z,78.64
2019-04-06T17:10:25.794Z,78.74
2019-04-06T17:12:17.601Z,78.55
2019-04-06T17:13:17.713Z,78.64
2019-04-06T17:15:09.792Z,78.64
2019-04-06T17:16:09.728Z,78.55
2019-04-06T17:17:09.672Z,78.83
2019-04-06T17:18:09.614Z,78.83
2019-04-06T17:19:09.594Z,78.83
2019-04-06T17:20:09.504Z,78.45
2019-04-06T17:21:09.803Z,78.26
2019-04-06T17:22:09.394Z,78.64
2019-04-06T17:23:09.557Z,78.83
2019-04-06T17:24:09.369Z,78.83
2019-04-06T17:25:09.678Z,79.22
2019-04-06T17:26:10.544Z,79.22
2019-04-06T17:27:09.314Z,79.02
2019-04-06T17:28:09.063Z,79.31
2019-04-06T17:29:09.240Z,79.02
2019-04-06T17:30:08.957Z,79.02
2019-04-06T17:31:08.898Z,78.93
2019-04-06T17:32:08.841Z,79.02
2019-04-06T17:33:08.787Z,78.83
2019-04-06T17:34:08.761Z,78.93
2019-04-06T17:35:09.338Z,78.93
2019-04-06T17:36:08.621Z,79.22
2019-04-06T17:37:08.566Z,79.41
2019-04-06T17:38:08.894Z,79.31
2019-04-06T17:39:08.459Z,79.22
2019-04-06T17:40:08.532Z,79.79
2019-04-06T17:41:08.348Z,79.79
2019-04-06T17:42:08.626Z,80.36
2019-04-06T17:43:08.595Z,80.84
2019-04-06T17:44:08.179Z,81.03
2019-04-06T17:45:08.125Z,80.74
2019-04-06T17:46:08.299Z,80.65
2019-04-06T17:47:08.013Z,80.46
2019-04-06T17:48:08.134Z,81.22
2019-04-06T17:49:07.902Z,81.70
2019-04-06T17:50:07.847Z,80.55
2019-04-06T17:51:07.792Z,80.74
2019-04-06T17:52:07.738Z,80.93
2019-04-06T17:53:07.682Z,80.84
2019-04-06T17:54:07.625Z,80.84
2019-04-06T17:55:07.589Z,80.61
2019-04-06T17:56:07.516Z,80.61
2019-04-06T17:57:07.461Z,81.13
2019-04-06T17:58:07.404Z,81.56
2019-04-06T17:59:07.393Z,81.76
2019-04-06T18:00:07.300Z,81.51
2019-04-06T18:01:07.251Z,81.95
2019-04-06T18:02:07.653Z,82.14
2019-04-06T18:03:07.128Z,81.95
2019-04-06T18:04:07.073Z,82.56
2019-04-06T18:05:07.058Z,82.52
2019-04-06T18:06:06.963Z,82.52
2019-04-06T18:07:07.474Z,82.42
2019-04-06T18:08:06.854Z,82.52
2019-04-06T18:09:07.224Z,82.61
2019-04-06T18:10:06.743Z,82.14
2019-04-06T18:11:06.687Z,82.32
2019-04-06T18:12:06.637Z,82.42
2019-04-06T18:13:06.762Z,82.23
2019-04-06T18:14:06.703Z,82.90
2019-04-06T18:15:06.468Z,82.90
2019-04-06T18:16:07.038Z,82.32
2019-04-06T18:17:06.355Z,82.52
2019-04-06T18:18:06.303Z,82.32
2019-04-06T18:19:06.246Z,82.81
2019-04-06T18:20:06.190Z,82.90
2019-04-06T18:21:06.137Z,82.81
2019-04-06T18:22:06.528Z,82.81
2019-04-06T18:23:06.027Z,82.81
2019-04-06T18:24:05.966Z,82.61
2019-04-06T18:25:05.911Z,82.32
2019-04-06T18:26:05.858Z,82.81
2019-04-06T18:27:05.986Z,82.90
2019-04-06T18:28:06.023Z,83.38
2019-04-06T18:29:06.134Z,83.47
2019-04-06T18:30:05.637Z,83.38
2019-04-06T18:31:05.810Z,83.38
2019-04-06T18:32:05.523Z,83.47
2019-04-06T18:33:05.471Z,83.38
2019-04-06T18:34:05.484Z,83.18
2019-04-06T18:35:05.358Z,83.18
2019-04-06T18:36:05.323Z,83.38
2019-04-06T18:37:05.323Z,82.81
2019-04-06T18:38:05.192Z,83.09
2019-04-06T18:39:05.139Z,82.52
2019-04-06T18:40:05.083Z,82.52
2019-04-06T18:41:05.026Z,83.09
2019-04-06T18:42:05.261Z,83.34
2019-04-06T18:43:05.204Z,83.09
2019-04-06T18:44:04.858Z,83.18
2019-04-06T18:45:05.284Z,83.72
2019-04-06T18:46:04.748Z,83.72
2019-04-06T18:47:04.783Z,83.14
2019-04-06T18:48:04.640Z,83.24
2019-04-06T18:49:04.580Z,83.34
2019-04-06T18:50:04.828Z,83.34
2019-04-06T18:51:04.480Z,83.72
2019-04-06T18:52:04.413Z,83.62
2019-04-06T18:53:04.459Z,83.72
2019-04-06T18:54:04.301Z,83.72
2019-04-06T18:55:04.246Z,83.91
2019-04-06T18:56:04.205Z,83.62
2019-04-06T18:57:04.134Z,83.62
2019-04-06T18:58:11.291Z,83.91
2019-04-06T18:59:04.024Z,83.62
2019-04-06T19:00:03.977Z,83.34
2019-04-06T19:01:04.363Z,83.34
2019-04-06T19:02:04.299Z,83.43
2019-04-06T19:03:12.517Z,83.34
2019-04-06T19:04:03.747Z,83.34
2019-04-06T19:05:03.692Z,82.48
2019-04-06T19:06:03.632Z,83.34
2019-04-06T19:07:03.806Z,83.34
2019-04-06T19:08:03.529Z,83.14
2019-04-06T19:09:03.466Z,83.34
2019-04-06T19:10:04.128Z,83.34
2019-04-06T19:11:03.359Z,83.14
2019-04-06T19:12:03.301Z,83.05
2019-04-06T19:13:03.244Z,83.43
2019-04-06T19:14:03.187Z,83.43
2019-04-06T19:15:03.177Z,83.24
2019-04-06T19:16:03.077Z,83.14
2019-04-06T19:17:03.025Z,83.43
2019-04-06T19:18:02.969Z,83.43
2019-04-06T19:19:02.915Z,83.14
2019-04-06T19:20:02.854Z,83.43
2019-04-06T19:21:02.972Z,83.43
2019-04-06T19:22:02.743Z,83.14
2019-04-06T19:23:02.686Z,83.14
2019-04-06T19:24:03.123Z,83.05
2019-04-06T19:25:02.574Z,83.34
2019-04-06T19:26:02.517Z,83.43
2019-04-06T19:27:02.461Z,83.34
2019-04-06T19:28:02.408Z,83.05
2019-04-06T19:29:02.766Z,83.14
2019-04-06T19:30:02.295Z,82.76
2019-04-06T19:31:02.240Z,83.14
2019-04-06T19:32:02.844Z,82.67
2019-04-06T19:33:02.127Z,82.57
2019-04-06T19:34:02.325Z,82.95
2019-04-06T19:35:02.024Z,82.29
2019-04-06T19:36:02.190Z,82.29
2019-04-06T19:37:02.014Z,82.67
2019-04-06T19:38:02.035Z,82.29
2019-04-06T19:39:01.792Z,82.48
2019-04-06T19:40:01.738Z,82.48
2019-04-06T19:41:01.987Z,82.43
2019-04-06T19:42:01.832Z,82.48
2019-04-06T19:43:01.567Z,82.48
2019-04-06T19:44:01.511Z,82.43
2019-04-06T19:45:01.457Z,82.29
2019-04-06T19:46:01.398Z,82.63
2019-04-06T19:47:01.347Z,82.57
2019-04-06T19:48:01.287Z,82.63
2019-04-06T19:49:01.281Z,82.82
2019-04-06T19:50:01.764Z,83.11
2019-04-06T19:51:01.122Z,83.01
2019-04-06T19:52:01.499Z,83.29
2019-04-06T19:53:01.011Z,83.11
2019-04-06T19:54:00.952Z,83.29
2019-04-06T19:55:01.302Z,83.11
2019-04-06T19:56:01.024Z,83.01
2019-04-06T19:57:00.782Z,83.20
2019-04-06T19:58:00.727Z,83.67
2019-04-06T19:59:00.817Z,83.29
2019-04-06T20:00:01.111Z,83.58
2019-04-06T20:01:01.390Z,83.39
2019-04-06T20:02:00.590Z,83.01
2019-04-06T20:03:00.650Z,83.20
2019-04-06T20:04:00.392Z,83.39
2019-04-06T20:05:00.335Z,83.11
2019-04-06T20:06:00.665Z,83.48
2019-04-06T20:07:00.223Z,83.01
2019-04-06T20:08:00.476Z,83.29
2019-04-06T20:09:00.494Z,83.48
2019-04-06T20:10:00.772Z,83.01
2019-04-06T20:10:59.999Z,82.91
2019-04-06T20:12:06.904Z,83.11
2019-04-06T20:12:59.884Z,82.82
2019-04-06T20:13:59.829Z,83.48
2019-04-06T20:14:59.775Z,82.63
2019-04-06T20:15:59.862Z,82.63
2019-04-06T20:16:59.660Z,82.15
2019-04-06T20:17:59.603Z,82.43
2019-04-06T20:18:59.841Z,82.24
2019-04-06T20:20:00.131Z,82.53
2019-04-06T20:20:59.640Z,82.63
2019-04-06T20:21:59.458Z,82.72
2019-04-06T20:22:59.321Z,82.72
2019-04-06T20:23:59.264Z,82.24
2019-04-06T20:24:59.210Z,82.24
2019-04-06T20:25:59.152Z,82.91
2019-04-06T20:26:59.096Z,82.43
2019-04-06T20:27:59.041Z,82.53
2019-04-06T20:28:58.985Z,82.63
2019-04-06T20:29:58.927Z,82.72
2019-04-06T20:30:58.871Z,83.29
2019-04-06T20:31:58.821Z,83.11
2019-04-06T20:32:59.374Z,83.58
2019-04-06T20:33:58.702Z,83.11
2019-04-06T20:34:58.646Z,83.67
2019-04-06T20:35:58.724Z,83.96
2019-04-06T20:36:58.533Z,84.53
2019-04-06T20:37:58.476Z,84.06
2019-04-06T20:38:58.420Z,84.44
2019-04-06T20:39:58.364Z,84.16
2019-04-06T20:40:58.307Z,84.34
2019-04-06T20:41:58.632Z,83.77
2019-04-06T20:42:58.386Z,84.16
2019-04-06T20:43:58.507Z,84.16
2019-04-06T20:44:58.214Z,84.16
2019-04-06T20:45:58.024Z,83.87
2019-04-06T20:46:58.417Z,83.58
2019-04-06T20:47:57.913Z,83.29
2019-04-06T20:48:57.858Z,83.29
2019-04-06T20:49:58.115Z,83.20
2019-04-06T20:50:57.743Z,83.29
2019-04-06T20:51:59.030Z,83.11
2019-04-06T20:52:58.049Z,83.01
2019-04-06T20:53:57.574Z,82.24
2019-04-06T20:54:58.085Z,82.72
2019-04-06T20:55:57.525Z,82.53
2019-04-06T20:56:58.395Z,82.72
2019-04-06T20:57:57.348Z,82.72
2019-04-06T20:58:57.492Z,82.63
2019-04-06T20:59:57.237Z,82.53
2019-04-06T21:00:57.182Z,82.91
2019-04-06T21:01:57.127Z,82.34
2019-04-06T21:02:57.071Z,82.06
2019-04-06T21:04:00.895Z,82.06
2019-04-06T21:04:56.956Z,82.15
2019-04-06T21:05:56.899Z,81.67
2019-04-06T21:06:56.843Z,81.48
2019-04-06T21:07:56.793Z,81.67
2019-04-06T21:08:56.731Z,81.48
2019-04-06T21:09:57.158Z,81.67
2019-04-06T21:10:56.775Z,81.77
2019-04-06T21:11:56.947Z,81.86
2019-04-06T21:12:56.515Z,81.48
2019-04-06T21:13:56.770Z,81.48
2019-04-06T21:14:56.393Z,81.58
2019-04-06T21:15:56.625Z,81.58
2019-04-06T21:16:56.318Z,81.67
2019-04-06T21:17:56.224Z,81.10
2019-04-06T21:18:56.167Z,81.77
2019-04-06T21:19:56.136Z,81.96
2019-04-06T21:20:56.062Z,81.38
2019-04-06T21:21:58.617Z,81.67
2019-04-06T21:22:56.294Z,81.58
2019-04-06T21:23:56.107Z,81.48
2019-04-06T21:24:55.831Z,81.29
2019-04-06T21:25:55.772Z,81.48
2019-04-06T21:26:55.716Z,81.29
2019-04-06T21:27:55.662Z,81.67
2019-04-06T21:28:55.604Z,81.48
2019-04-06T21:29:56.126Z,81.77
2019-04-06T21:30:55.599Z,81.38
2019-04-06T21:31:55.436Z,81.58
2019-04-06T21:32:55.384Z,81.38
2019-04-06T21:33:55.327Z,81.67
2019-04-06T21:34:55.268Z,81.48
2019-04-06T21:35:55.211Z,81.38
2019-04-06T21:36:55.155Z,81.58
2019-04-06T21:37:55.099Z,81.58
2019-04-06T21:38:55.042Z,81.10
2019-04-06T21:39:55.026Z,81.01
2019-04-06T21:40:54.929Z,81.20
2019-04-06T21:41:55.269Z,80.91
2019-04-06T21:42:54.816Z,81.48
2019-04-06T21:43:54.760Z,81.58
2019-04-06T21:44:54.702Z,81.48
2019-04-06T21:45:54.887Z,81.38
2019-04-06T21:46:54.750Z,81.48
2019-04-06T21:47:55.008Z,81.38
2019-04-06T21:48:54.478Z,81.48
2019-04-06T21:49:54.440Z,81.10
2019-04-06T21:50:54.869Z,81.10
2019-04-06T21:51:54.317Z,81.10
2019-04-06T21:52:54.268Z,80.53
2019-04-06T21:53:54.196Z,80.62
2019-04-06T21:54:54.219Z,80.62
2019-04-06T21:56:01.624Z,80.72
2019-04-06T21:56:54.480Z,80.62
2019-04-06T21:57:54.195Z,80.53
2019-04-06T21:58:53.914Z,80.72
2019-04-06T21:59:53.868Z,80.62
2019-04-06T22:00:53.803Z,80.49
2019-04-06T22:01:53.747Z,80.49
2019-04-06T22:02:53.788Z,80.53
2019-04-06T22:03:53.882Z,80.33
2019-04-06T22:04:53.580Z,80.49
2019-04-06T22:05:53.519Z,80.58
2019-04-06T22:06:53.991Z,80.68
2019-04-06T22:07:54.604Z,80.53
2019-04-06T22:08:53.478Z,80.49
2019-04-06T22:09:53.303Z,80.49
2019-04-06T22:10:53.946Z,80.68
2019-04-06T22:11:53.187Z,80.49
2019-04-06T22:12:53.440Z,80.58
2019-04-06T22:13:53.399Z,80.49
2019-04-06T22:14:53.012Z,80.49
2019-04-06T22:15:52.958Z,80.49
2019-04-06T22:16:52.899Z,80.49
2019-04-06T22:17:53.234Z,80.58
2019-04-06T22:18:53.031Z,80.77
2019-04-06T22:19:52.731Z,80.49
2019-04-06T22:20:52.674Z,80.58
2019-04-06T22:21:52.990Z,80.77
2019-04-06T22:22:52.565Z,80.58
2019-04-06T22:23:52.512Z,80.77
2019-04-06T22:24:52.706Z,80.87
2019-04-06T22:25:52.402Z,80.77
2019-04-06T22:26:52.372Z,80.77
2019-04-06T22:27:52.884Z,80.87
2019-04-06T22:28:52.317Z,80.49
2019-04-06T22:29:52.266Z,80.30
2019-04-06T22:30:52.109Z,80.49
2019-04-06T22:31:52.055Z,80.49
2019-04-06T22:32:52.380Z,80.58
2019-04-06T22:33:52.478Z,80.68
2019-04-06T22:34:52.075Z,80.58
2019-04-06T22:35:51.854Z,80.58
2019-04-06T22:36:51.771Z,80.68
2019-04-06T22:37:54.306Z,80.58
2019-04-06T22:38:51.657Z,80.49
2019-04-06T22:39:51.603Z,80.30
2019-04-06T22:40:52.024Z,80.39
2019-04-06T22:41:51.487Z,80.30
2019-04-06T22:42:51.510Z,80.30
2019-04-06T22:43:51.375Z,80.49
2019-04-06T22:44:51.319Z,80.68
2019-04-06T22:45:51.871Z,80.49
2019-04-06T22:46:51.494Z,80.39
2019-04-06T22:47:51.147Z,80.58
2019-04-06T22:48:51.095Z,80.30
2019-04-06T22:49:51.110Z,80.58
2019-04-06T22:50:50.985Z,80.49
2019-04-06T22:51:50.923Z,80.49
2019-04-06T22:52:51.494Z,80.11
2019-04-06T22:53:51.917Z,80.01
2019-04-06T22:54:51.380Z,80.11
2019-04-06T22:55:50.697Z,80.01
2019-04-06T22:56:50.640Z,80.01
2019-04-06T22:57:50.585Z,80.20
2019-04-06T22:58:50.526Z,80.30
2019-04-06T22:59:50.730Z,80.11
2019-04-06T23:00:50.513Z,80.11
2019-04-06T23:01:50.512Z,79.72
2019-04-06T23:02:50.302Z,79.72
2019-04-06T23:03:50.465Z,79.72
2019-04-06T23:04:51.332Z,80.30
2019-04-06T23:05:50.633Z,79.72
2019-04-06T23:06:50.076Z,79.35
2019-04-06T23:07:50.692Z,79.63
2019-04-06T23:08:49.962Z,79.72
2019-04-06T23:09:49.905Z,79.82
2019-04-06T23:10:50.378Z,79.63
2019-04-06T23:11:50.400Z,79.35
2019-04-06T23:12:49.736Z,79.25
2019-04-06T23:13:49.679Z,79.25
2019-04-06T23:14:49.900Z,79.53
2019-04-06T23:15:49.696Z,79.35
2019-04-06T23:16:49.510Z,79.35
2019-04-06T23:17:49.923Z,79.25
2019-04-06T23:18:49.395Z,79.44
2019-04-06T23:19:49.687Z,79.35
2019-04-06T23:20:49.580Z,79.44
2019-04-06T23:21:49.225Z,79.82
2019-04-06T23:22:49.168Z,79.63
2019-04-06T23:23:50.188Z,79.35
2019-04-06T23:24:49.062Z,79.72
2019-04-06T23:25:49.356Z,79.53
2019-04-06T23:26:48.942Z,79.06
2019-04-06T23:27:48.886Z,79.15
2019-04-06T23:28:49.057Z,79.25
2019-04-06T23:29:48.774Z,79.25
2019-04-06T23:30:48.915Z,79.25
2019-04-06T23:31:48.658Z,79.25
2019-04-06T23:32:49.024Z,79.53
2019-04-06T23:33:48.545Z,78.67
2019-04-06T23:34:58.297Z,78.86
2019-04-06T23:35:48.432Z,78.96
2019-04-06T23:36:48.375Z,78.86
2019-04-06T23:37:48.325Z,79.15
2019-04-06T23:38:48.775Z,79.35
2019-04-06T23:39:48.268Z,78.96
2019-04-06T23:40:48.696Z,79.15
2019-04-06T23:41:48.410Z,79.06
2019-04-06T23:42:48.119Z,78.96
2019-04-06T23:43:48.221Z,78.77
2019-04-06T23:44:47.923Z,78.86
2019-04-06T23:45:47.865Z,78.96
2019-04-06T23:46:47.808Z,78.77
2019-04-06T23:47:48.312Z,78.96
2019-04-06T23:48:47.696Z,78.49
2019-04-06T23:49:47.640Z,78.49
2019-04-06T23:50:47.582Z,78.67
2019-04-06T23:51:47.652Z,78.20
2019-04-06T23:52:47.921Z,78.49
2019-04-06T23:53:48.039Z,78.67
2019-04-06T23:54:47.434Z,78.77
2019-04-06T23:55:47.773Z,78.49
2019-04-06T23:56:47.577Z,78.49
2019-04-06T23:57:47.772Z,78.30
2019-04-06T23:58:47.188Z,78.58
2019-04-06T23:59:47.770Z,78.49
